createdAt,value
2024-04-18T00:00:52.483Z,87.17
2024-04-18T00:01:52.426Z,87.79
2024-04-18T00:02:52.400Z,87.48
2024-04-18T00:03:52.500Z,87.89
2024-04-18T00:04:52.511Z,87.48
2024-04-18T00:05:52.361Z,87.27
2024-04-18T00:06:52.404Z,87.58
2024-04-18T00:07:52.344Z,87.89
2024-04-18T00:08:52.346Z,88.41
2024-04-18T00:09:52.336Z,88.10
2024-04-18T00:10:52.323Z,88.10
2024-04-18T00:11:52.310Z,88.45
2024-04-18T00:12:52.298Z,88.51
2024-04-18T00:13:52.281Z,88.92
2024-04-18T00:14:52.305Z,89.03
2024-04-18T00:15:52.317Z,88.57
2024-04-18T00:16:52.253Z,88.37
2024-04-18T00:17:52.304Z,88.06
2024-04-18T00:18:52.251Z,88.06
2024-04-18T00:19:52.221Z,87.95
2024-04-18T00:20:52.239Z,87.44
2024-04-18T00:21:52.233Z,87.48
2024-04-18T00:22:52.194Z,87.89
2024-04-18T00:23:52.197Z,87.48
2024-04-18T00:24:52.205Z,87.48
2024-04-18T00:25:52.189Z,88.10
2024-04-18T00:26:52.162Z,88.10
2024-04-18T00:27:52.225Z,87.68
2024-04-18T00:28:52.149Z,87.68
2024-04-18T00:29:52.132Z,87.79
2024-04-18T00:30:52.150Z,88.10
2024-04-18T00:31:52.125Z,88.31
2024-04-18T00:32:52.149Z,88.31
2024-04-18T00:33:52.176Z,87.89
2024-04-18T00:34:52.081Z,88.37
2024-04-18T00:35:52.072Z,88.10
2024-04-18T00:36:52.118Z,89.03
2024-04-18T00:37:52.060Z,88.61
2024-04-18T00:38:52.110Z,88.20
2024-04-18T00:39:52.180Z,88.41
2024-04-18T00:40:52.053Z,87.95
2024-04-18T00:41:52.011Z,87.74
2024-04-18T00:42:52.054Z,87.54
2024-04-18T00:43:51.992Z,87.85
2024-04-18T00:44:51.989Z,87.95
2024-04-18T00:45:52.072Z,88.26
2024-04-18T00:46:51.962Z,88.26
2024-04-18T00:47:52.012Z,88.16
2024-04-18T00:48:52.061Z,88.78
2024-04-18T00:49:51.936Z,88.26
2024-04-18T00:50:51.955Z,87.95
2024-04-18T00:51:51.922Z,88.47
2024-04-18T00:52:51.903Z,88.47
2024-04-18T00:53:51.929Z,89.09
2024-04-18T00:54:51.882Z,89.29
2024-04-18T00:55:51.871Z,89.09
2024-04-18T00:56:51.890Z,87.95
2024-04-18T00:57:51.879Z,89.03
2024-04-18T00:58:51.876Z,89.09
2024-04-18T00:59:51.866Z,89.09
2024-04-18T01:00:51.940Z,89.19
2024-04-18T01:01:51.828Z,89.03
2024-04-18T01:02:51.810Z,89.09
2024-04-18T01:03:51.919Z,89.13
2024-04-18T01:04:51.825Z,89.92
2024-04-18T01:05:51.793Z,89.29
2024-04-18T01:06:51.781Z,88.92
2024-04-18T01:07:51.773Z,88.78
2024-04-18T01:08:51.748Z,88.61
2024-04-18T01:09:51.771Z,88.20
2024-04-18T01:10:51.756Z,88.51
2024-04-18T01:11:51.747Z,88.31
2024-04-18T01:12:51.749Z,88.20
2024-04-18T01:13:51.701Z,88.10
2024-04-18T01:14:51.702Z,88.41
2024-04-18T01:15:51.717Z,88.82
2024-04-18T01:16:51.692Z,88.41
2024-04-18T01:17:51.716Z,88.61
2024-04-18T01:18:51.680Z,88.61
2024-04-18T01:19:51.647Z,88.31
2024-04-18T01:20:51.648Z,88.71
2024-04-18T01:21:51.682Z,88.61
2024-04-18T01:22:51.637Z,88.71
2024-04-18T01:23:51.617Z,88.71
2024-04-18T01:24:51.661Z,89.34
2024-04-18T01:25:51.584Z,88.82
2024-04-18T01:26:51.596Z,88.51
2024-04-18T01:27:51.633Z,88.10
2024-04-18T01:28:51.563Z,88.41
2024-04-18T01:29:51.550Z,89.44
2024-04-18T01:30:51.581Z,88.82
2024-04-18T01:31:51.533Z,88.92
2024-04-18T01:32:51.618Z,88.71
2024-04-18T01:33:51.539Z,88.10
2024-04-18T01:34:51.503Z,88.10
2024-04-18T01:35:51.499Z,88.41
2024-04-18T01:36:51.494Z,87.85
2024-04-18T01:37:51.469Z,88.41
2024-04-18T01:38:51.486Z,88.06
2024-04-18T01:39:51.506Z,87.79
2024-04-18T01:40:51.439Z,87.79
2024-04-18T01:41:51.429Z,88.61
2024-04-18T01:42:51.429Z,88.20
2024-04-18T01:43:51.432Z,88.41
2024-04-18T01:44:51.406Z,88.51
2024-04-18T01:45:51.449Z,87.99
2024-04-18T01:46:51.388Z,88.31
2024-04-18T01:47:51.422Z,88.51
2024-04-18T01:48:51.404Z,87.89
2024-04-18T01:49:51.371Z,88.24
2024-04-18T01:50:51.383Z,88.10
2024-04-18T01:51:51.401Z,88.10
2024-04-18T01:52:51.342Z,88.34
2024-04-18T01:53:51.311Z,87.89
2024-04-18T01:54:51.346Z,87.99
2024-04-18T01:55:51.294Z,88.61
2024-04-18T01:56:51.289Z,88.92
2024-04-18T01:57:51.332Z,89.28
2024-04-18T01:58:51.293Z,88.41
2024-04-18T01:59:51.260Z,88.92
2024-04-18T02:00:51.367Z,88.86
2024-04-18T02:01:52.234Z,88.55
2024-04-18T02:02:51.262Z,88.76
2024-04-18T02:03:51.251Z,88.45
2024-04-18T02:04:51.235Z,88.31
2024-04-18T02:05:51.196Z,88.65
2024-04-18T02:06:51.190Z,88.55
2024-04-18T02:07:51.203Z,89.17
2024-04-18T02:08:51.203Z,88.86
2024-04-18T02:09:51.228Z,88.82
2024-04-18T02:10:51.234Z,89.34
2024-04-18T02:11:51.132Z,89.03
2024-04-18T02:12:51.196Z,89.95
2024-04-18T02:13:51.132Z,89.13
2024-04-18T02:14:51.110Z,90.00
2024-04-18T02:15:51.203Z,89.17
2024-04-18T02:16:51.096Z,89.28
2024-04-18T02:17:51.132Z,89.59
2024-04-18T02:18:51.157Z,89.48
2024-04-18T02:19:51.070Z,89.59
2024-04-18T02:20:51.053Z,89.32
2024-04-18T02:21:51.072Z,89.73
2024-04-18T02:22:51.052Z,90.41
2024-04-18T02:23:51.050Z,90.52
2024-04-18T02:24:51.054Z,90.62
2024-04-18T02:25:51.006Z,89.89
2024-04-18T02:26:50.997Z,89.48
2024-04-18T02:27:51.052Z,90.00
2024-04-18T02:28:50.988Z,90.41
2024-04-18T02:29:50.968Z,89.89
2024-04-18T02:30:50.965Z,89.79
2024-04-18T02:31:50.983Z,89.79
2024-04-18T02:32:50.972Z,90.00
2024-04-18T02:33:51.293Z,90.20
2024-04-18T02:34:50.914Z,89.79
2024-04-18T02:35:50.916Z,89.79
2024-04-18T02:36:50.950Z,89.79
2024-04-18T02:37:50.906Z,90.20
2024-04-18T02:38:50.873Z,89.83
2024-04-18T02:39:50.934Z,90.35
2024-04-18T02:40:50.857Z,90.66
2024-04-18T02:41:50.867Z,90.00
2024-04-18T02:42:50.921Z,90.72
2024-04-18T02:43:50.833Z,90.62
2024-04-18T02:44:50.836Z,90.41
2024-04-18T02:45:50.901Z,90.62
2024-04-18T02:46:50.804Z,89.89
2024-04-18T02:47:50.969Z,90.06
2024-04-18T02:48:50.785Z,89.69
2024-04-18T02:49:50.776Z,89.23
2024-04-18T02:50:50.770Z,89.28
2024-04-18T02:51:50.807Z,89.94
2024-04-18T02:52:50.740Z,89.79
2024-04-18T02:53:50.757Z,89.69
2024-04-18T02:54:50.774Z,89.89
2024-04-18T02:55:50.716Z,89.54
2024-04-18T02:56:50.715Z,89.86
2024-04-18T02:57:50.752Z,90.10
2024-04-18T02:58:50.706Z,89.38
2024-04-18T02:59:50.679Z,89.69
2024-04-18T03:00:50.815Z,89.28
2024-04-18T03:01:50.649Z,89.94
2024-04-18T03:02:50.679Z,89.69
2024-04-18T03:03:50.857Z,89.83
2024-04-18T03:04:50.649Z,90.04
2024-04-18T03:05:50.639Z,89.22
2024-04-18T03:06:50.618Z,89.32
2024-04-18T03:07:50.632Z,89.11
2024-04-18T03:08:50.592Z,89.11
2024-04-18T03:09:50.629Z,89.79
2024-04-18T03:10:50.562Z,90.20
2024-04-18T03:11:50.591Z,89.89
2024-04-18T03:12:50.595Z,89.38
2024-04-18T03:13:50.546Z,89.44
2024-04-18T03:14:50.558Z,88.51
2024-04-18T03:15:51.588Z,88.51
2024-04-18T03:16:50.518Z,88.14
2024-04-18T03:17:50.595Z,87.83
2024-04-18T03:18:50.534Z,88.34
2024-04-18T03:19:50.492Z,88.14
2024-04-18T03:20:50.469Z,88.34
2024-04-18T03:21:50.479Z,88.86
2024-04-18T03:22:50.442Z,88.86
2024-04-18T03:23:50.465Z,88.76
2024-04-18T03:24:50.487Z,88.96
2024-04-18T03:25:50.422Z,88.86
2024-04-18T03:26:50.415Z,89.17
2024-04-18T03:27:50.442Z,89.22
2024-04-18T03:28:50.384Z,89.48
2024-04-18T03:29:50.373Z,88.96
2024-04-18T03:30:50.424Z,89.28
2024-04-18T03:31:50.393Z,89.38
2024-04-18T03:32:50.399Z,89.38
2024-04-18T03:33:50.391Z,89.17
2024-04-18T03:34:50.351Z,89.75
2024-04-18T03:35:50.313Z,89.13
2024-04-18T03:36:50.358Z,88.76
2024-04-18T03:37:50.303Z,89.34
2024-04-18T03:38:50.299Z,89.59
2024-04-18T03:39:50.380Z,89.17
2024-04-18T03:40:50.282Z,89.03
2024-04-18T03:41:50.280Z,89.86
2024-04-18T03:42:50.264Z,88.82
2024-04-18T03:43:50.232Z,89.07
2024-04-18T03:44:50.229Z,89.28
2024-04-18T03:45:50.322Z,89.54
2024-04-18T03:46:50.204Z,89.38
2024-04-18T03:47:50.230Z,89.17
2024-04-18T03:48:50.214Z,89.69
2024-04-18T03:49:50.196Z,89.75
2024-04-18T03:50:50.174Z,89.48
2024-04-18T03:51:50.283Z,89.79
2024-04-18T03:52:50.143Z,90.10
2024-04-18T03:53:50.140Z,89.03
2024-04-18T03:55:00.717Z,89.23
2024-04-18T03:55:52.118Z,89.38
2024-04-18T03:56:50.103Z,89.75
2024-04-18T03:57:50.132Z,89.89
2024-04-18T03:58:50.090Z,89.17
2024-04-18T03:59:50.076Z,89.44
2024-04-18T04:00:50.168Z,89.89
2024-04-18T04:01:50.089Z,90.00
2024-04-18T04:02:50.049Z,89.75
2024-04-18T04:03:50.076Z,89.17
2024-04-18T04:04:50.024Z,89.38
2024-04-18T04:05:50.037Z,89.38
2024-04-18T04:06:50.013Z,89.79
2024-04-18T04:07:49.995Z,89.89
2024-04-18T04:08:49.982Z,89.89
2024-04-18T04:09:50.032Z,89.07
2024-04-18T04:10:49.976Z,90.41
2024-04-18T04:11:49.953Z,90.52
2024-04-18T04:12:49.989Z,89.48
2024-04-18T04:13:49.930Z,89.79
2024-04-18T04:14:49.942Z,89.89
2024-04-18T04:15:49.968Z,90.00
2024-04-18T04:16:49.907Z,90.10
2024-04-18T04:17:49.935Z,89.65
2024-04-18T04:18:49.982Z,89.89
2024-04-18T04:19:49.886Z,90.10
2024-04-18T04:20:49.889Z,90.20
2024-04-18T04:21:49.966Z,90.37
2024-04-18T04:22:49.854Z,90.89
2024-04-18T04:23:49.879Z,89.75
2024-04-18T04:24:49.918Z,88.86
2024-04-18T04:25:49.848Z,89.79
2024-04-18T04:26:49.857Z,89.48
2024-04-18T04:27:49.914Z,89.48
2024-04-18T04:28:49.823Z,89.69
2024-04-18T04:29:49.780Z,89.17
2024-04-18T04:30:49.885Z,89.89
2024-04-18T04:31:49.923Z,90.47
2024-04-18T04:32:49.765Z,89.44
2024-04-18T04:33:49.867Z,89.54
2024-04-18T04:34:49.732Z,90.06
2024-04-18T04:35:49.785Z,90.16
2024-04-18T04:36:49.814Z,90.26
2024-04-18T04:37:49.700Z,89.86
2024-04-18T04:38:49.692Z,90.37
2024-04-18T04:39:49.730Z,89.44
2024-04-18T04:40:49.690Z,89.81
2024-04-18T04:41:49.671Z,90.06
2024-04-18T04:42:49.723Z,90.16
2024-04-18T04:43:49.652Z,90.74
2024-04-18T04:44:49.672Z,90.53
2024-04-18T04:45:49.673Z,90.06
2024-04-18T04:46:49.638Z,90.37
2024-04-18T04:47:49.681Z,90.37
2024-04-18T04:48:49.780Z,90.37
2024-04-18T04:49:49.599Z,90.33
2024-04-18T04:50:49.576Z,90.74
2024-04-18T04:51:49.661Z,90.84
2024-04-18T04:52:49.558Z,89.92
2024-04-18T04:53:52.044Z,89.40
2024-04-18T04:54:49.571Z,89.61
2024-04-18T04:55:49.546Z,90.12
2024-04-18T04:56:49.527Z,89.50
2024-04-18T04:57:49.563Z,89.81
2024-04-18T04:58:49.505Z,89.81
2024-04-18T04:59:49.497Z,90.53
2024-04-18T05:00:49.615Z,90.39
2024-04-18T05:01:49.532Z,90.49
2024-04-18T05:02:50.090Z,89.87
2024-04-18T05:03:50.591Z,90.12
2024-04-18T05:04:49.438Z,89.25
2024-04-18T05:05:49.430Z,89.77
2024-04-18T05:06:49.532Z,89.67
2024-04-18T05:07:51.373Z,89.46
2024-04-18T05:08:49.409Z,89.71
2024-04-18T05:09:49.466Z,89.56
2024-04-18T05:10:49.413Z,89.56
2024-04-18T05:11:49.377Z,89.56
2024-04-18T05:12:49.432Z,89.92
2024-04-18T05:13:49.347Z,89.67
2024-04-18T05:14:49.345Z,90.12
2024-04-18T05:15:49.367Z,89.40
2024-04-18T05:16:49.476Z,89.71
2024-04-18T05:17:49.325Z,89.29
2024-04-18T05:18:49.400Z,90.02
2024-04-18T05:19:49.302Z,90.53
2024-04-18T05:20:49.284Z,90.53
2024-04-18T05:21:49.368Z,90.49
2024-04-18T05:22:49.297Z,90.22
2024-04-18T05:23:49.281Z,90.53
2024-04-18T05:24:49.450Z,90.43
2024-04-18T05:25:49.256Z,90.12
2024-04-18T05:26:49.234Z,90.74
2024-04-18T05:27:49.330Z,90.49
2024-04-18T05:28:49.235Z,90.28
2024-04-18T05:29:49.210Z,90.43
2024-04-18T05:30:49.216Z,90.39
2024-04-18T05:31:49.180Z,90.49
2024-04-18T05:32:49.373Z,90.49
2024-04-18T05:33:49.190Z,90.49
2024-04-18T05:34:49.145Z,90.28
2024-04-18T05:35:49.146Z,89.46
2024-04-18T05:36:49.357Z,90.49
2024-04-18T05:37:49.115Z,90.19
2024-04-18T05:38:49.144Z,90.70
2024-04-18T05:39:49.108Z,90.28
2024-04-18T05:40:49.094Z,89.77
2024-04-18T05:41:49.080Z,89.46
2024-04-18T05:42:49.225Z,89.36
2024-04-18T05:43:49.057Z,89.81
2024-04-18T05:44:49.082Z,89.67
2024-04-18T05:45:49.099Z,89.61
2024-04-18T05:46:49.079Z,89.98
2024-04-18T05:47:49.038Z,90.43
2024-04-18T05:48:49.098Z,90.49
2024-04-18T05:49:49.021Z,89.67
2024-04-18T05:50:48.999Z,90.49
2024-04-18T05:51:49.083Z,90.39
2024-04-18T05:52:48.984Z,90.43
2024-04-18T05:53:48.993Z,90.59
2024-04-18T05:54:48.992Z,90.49
2024-04-18T05:55:48.976Z,89.36
2024-04-18T05:56:48.936Z,89.92
2024-04-18T05:57:50.045Z,90.08
2024-04-18T05:58:48.936Z,90.19
2024-04-18T05:59:48.904Z,89.67
2024-04-18T06:00:48.994Z,89.98
2024-04-18T06:01:48.895Z,88.95
2024-04-18T06:02:48.879Z,89.05
2024-04-18T06:03:49.917Z,89.25
2024-04-18T06:04:48.941Z,89.67
2024-04-18T06:05:48.858Z,90.39
2024-04-18T06:06:48.890Z,89.62
2024-04-18T06:07:48.822Z,89.22
2024-04-18T06:08:48.834Z,88.45
2024-04-18T06:09:48.896Z,87.93
2024-04-18T06:10:48.916Z,87.52
2024-04-18T06:11:48.799Z,87.77
2024-04-18T06:12:48.901Z,87.73
2024-04-18T06:13:48.774Z,87.93
2024-04-18T06:14:48.770Z,87.73
2024-04-18T06:15:49.662Z,87.52
2024-04-18T06:16:48.767Z,87.69
2024-04-18T06:17:48.764Z,87.32
2024-04-18T06:18:48.792Z,87.52
2024-04-18T06:19:48.714Z,86.70
2024-04-18T06:20:48.691Z,87.73
2024-04-18T06:21:48.777Z,87.46
2024-04-18T06:22:48.683Z,87.56
2024-04-18T06:23:48.702Z,87.46
2024-04-18T06:24:49.240Z,88.43
2024-04-18T06:25:49.678Z,89.32
2024-04-18T06:26:48.655Z,89.46
2024-04-18T06:27:48.789Z,89.46
2024-04-18T06:28:48.668Z,89.22
2024-04-18T06:29:48.614Z,89.62
2024-04-18T06:30:48.692Z,89.22
2024-04-18T06:31:48.757Z,89.22
2024-04-18T06:32:48.621Z,88.43
2024-04-18T06:33:48.780Z,89.11
2024-04-18T06:34:48.573Z,89.62
2024-04-18T06:35:48.555Z,89.17
2024-04-18T06:36:48.582Z,88.96
2024-04-18T06:37:48.565Z,88.45
2024-04-18T06:38:48.521Z,88.45
2024-04-18T06:39:48.523Z,87.93
2024-04-18T06:40:48.512Z,86.90
2024-04-18T06:41:48.527Z,87.52
2024-04-18T06:42:48.531Z,88.20
2024-04-18T06:43:48.494Z,88.14
2024-04-18T06:44:48.471Z,87.90
2024-04-18T06:45:48.568Z,88.24
2024-04-18T06:46:53.278Z,88.31
2024-04-18T06:47:50.644Z,88.51
2024-04-18T06:48:48.497Z,88.10
2024-04-18T06:49:48.436Z,87.99
2024-04-18T06:50:48.416Z,87.93
2024-04-18T06:51:48.464Z,87.83
2024-04-18T06:52:48.411Z,88.14
2024-04-18T06:53:48.375Z,88.35
2024-04-18T06:54:48.414Z,87.93
2024-04-18T06:55:48.359Z,88.14
2024-04-18T06:56:48.355Z,89.07
2024-04-18T06:57:48.530Z,88.96
2024-04-18T06:58:48.326Z,89.13
2024-04-18T06:59:48.326Z,88.41
2024-04-18T07:00:48.622Z,88.41
2024-04-18T07:01:48.309Z,89.07
2024-04-18T07:02:48.377Z,88.24
2024-04-18T07:03:48.406Z,88.14
2024-04-18T07:04:48.381Z,88.41
2024-04-18T07:05:48.270Z,88.41
2024-04-18T07:06:48.276Z,87.79
2024-04-18T07:07:48.275Z,87.48
2024-04-18T07:08:48.238Z,87.59
2024-04-18T07:09:49.717Z,87.99
2024-04-18T07:10:49.213Z,87.44
2024-04-18T07:11:48.282Z,87.79
2024-04-18T07:12:48.294Z,87.27
2024-04-18T07:13:48.193Z,87.38
2024-04-18T07:14:48.183Z,87.27
2024-04-18T07:15:48.233Z,87.44
2024-04-18T07:16:48.164Z,87.38
2024-04-18T07:17:48.211Z,86.31
2024-04-18T07:18:48.334Z,85.89
2024-04-18T07:19:48.142Z,85.79
2024-04-18T07:20:48.120Z,85.17
2024-04-18T07:21:48.155Z,85.49
2024-04-18T07:22:48.104Z,85.69
2024-04-18T07:23:48.111Z,86.00
2024-04-18T07:24:48.076Z,86.27
2024-04-18T07:25:48.112Z,87.60
2024-04-18T07:26:48.126Z,86.21
2024-04-18T07:27:48.070Z,85.96
2024-04-18T07:28:49.078Z,86.88
2024-04-18T07:29:48.027Z,87.19
2024-04-18T07:30:48.091Z,85.24
2024-04-18T07:31:48.010Z,84.31
2024-04-18T07:32:48.250Z,84.42
2024-04-18T07:33:48.054Z,84.31
2024-04-18T07:34:47.990Z,84.66
2024-04-18T07:35:47.968Z,84.66
2024-04-18T07:36:48.046Z,84.87
2024-04-18T07:37:47.947Z,85.31
2024-04-18T07:38:47.930Z,85.52
2024-04-18T07:39:47.928Z,86.52
2024-04-18T07:40:47.927Z,86.72
2024-04-18T07:41:47.945Z,86.47
2024-04-18T07:42:47.935Z,85.34
2024-04-18T07:43:47.887Z,84.93
2024-04-18T07:44:47.898Z,85.38
2024-04-18T07:45:47.935Z,85.55
2024-04-18T07:46:47.851Z,83.63
2024-04-18T07:47:47.900Z,83.53
2024-04-18T07:48:47.923Z,83.94
2024-04-18T07:49:49.476Z,83.63
2024-04-18T07:50:48.831Z,84.14
2024-04-18T07:51:47.820Z,84.45
2024-04-18T07:52:56.570Z,84.35
2024-04-18T07:53:48.791Z,84.45
2024-04-18T07:54:47.809Z,84.45
2024-04-18T07:55:47.771Z,84.80
2024-04-18T07:56:48.106Z,84.25
2024-04-18T07:57:48.184Z,83.86
2024-04-18T07:58:48.227Z,83.31
2024-04-18T07:59:48.535Z,82.41
2024-04-18T08:00:48.730Z,79.86
2024-04-18T08:01:49.110Z,77.73
2024-04-18T08:02:50.795Z,74.94
2024-04-18T08:03:56.810Z,75.07
2024-04-18T08:04:55.564Z,71.42
2024-04-18T08:05:51.798Z,70.20
2024-04-18T08:06:50.347Z,71.73
2024-04-18T08:07:49.988Z,71.33
2024-04-18T08:08:51.456Z,69.04
2024-04-18T08:09:51.164Z,70.10
2024-04-18T08:11:08.198Z,67.96
2024-04-18T08:12:51.340Z,67.65
2024-04-18T08:13:52.468Z,67.92
2024-04-18T08:14:51.013Z,70.54
2024-04-18T08:16:48.623Z,70.77
2024-04-18T08:17:47.586Z,72.41
2024-04-18T08:18:47.548Z,72.89
2024-04-18T08:19:47.541Z,74.12
2024-04-18T08:20:47.530Z,75.90
2024-04-18T08:21:47.517Z,74.77
2024-04-18T08:22:47.531Z,74.08
2024-04-18T08:23:47.493Z,74.87
2024-04-18T08:24:47.488Z,76.65
2024-04-18T08:25:47.476Z,77.03
2024-04-18T08:26:47.470Z,75.38
2024-04-18T08:27:47.481Z,75.42
2024-04-18T08:28:47.457Z,74.91
2024-04-18T08:29:47.451Z,75.21
2024-04-18T08:30:47.527Z,76.04
2024-04-18T08:31:47.446Z,75.62
2024-04-18T08:32:47.452Z,75.32
2024-04-18T08:33:54.368Z,74.63
2024-04-18T08:34:48.845Z,75.56
2024-04-18T08:35:47.382Z,74.94
2024-04-18T08:36:47.370Z,74.98
2024-04-18T08:37:47.392Z,74.46
2024-04-18T08:38:47.371Z,72.99
2024-04-18T08:39:48.083Z,72.07
2024-04-18T08:40:47.344Z,72.07
2024-04-18T08:41:47.643Z,73.10
2024-04-18T08:42:48.610Z,73.91
2024-04-18T08:43:52.089Z,72.45
2024-04-18T08:45:19.279Z,70.81
2024-04-18T08:45:47.327Z,70.12
2024-04-18T08:46:47.294Z,70.26
2024-04-18T08:47:47.410Z,72.03
2024-04-18T08:48:47.464Z,72.89
2024-04-18T08:49:47.329Z,74.02
2024-04-18T08:50:48.291Z,73.71
2024-04-18T08:51:47.307Z,73.23
2024-04-18T08:52:47.290Z,73.10
2024-04-18T08:53:47.253Z,73.19
2024-04-18T08:54:47.520Z,74.49
2024-04-18T08:55:47.275Z,73.91
2024-04-18T08:56:47.222Z,71.86
2024-04-18T08:57:47.210Z,73.10
2024-04-18T08:58:47.207Z,72.24
2024-04-18T08:59:47.201Z,73.44
2024-04-18T09:00:47.233Z,72.31
2024-04-18T09:01:47.170Z,70.57
2024-04-18T09:02:47.239Z,71.77
2024-04-18T09:03:48.183Z,71.77
2024-04-18T09:04:47.263Z,70.50
2024-04-18T09:05:47.119Z,71.70
2024-04-18T09:06:47.147Z,69.48
2024-04-18T09:07:47.144Z,67.96
2024-04-18T09:08:47.104Z,66.16
2024-04-18T09:09:47.200Z,65.45
2024-04-18T09:10:47.139Z,67.55
2024-04-18T09:11:47.071Z,67.69
2024-04-18T09:12:47.066Z,63.96
2024-04-18T09:13:47.041Z,63.56
2024-04-18T09:14:47.050Z,65.01
2024-04-18T09:15:47.045Z,64.36
2024-04-18T09:16:47.047Z,63.47
2024-04-18T09:17:47.114Z,64.31
2024-04-18T09:18:47.146Z,61.90
2024-04-18T09:19:46.977Z,64.07
2024-04-18T09:20:47.011Z,65.40
2024-04-18T09:21:46.983Z,64.27
2024-04-18T09:22:46.932Z,66.08
2024-04-18T09:23:46.949Z,64.69
2024-04-18T09:24:46.959Z,62.73
2024-04-18T09:25:46.911Z,64.60
2024-04-18T09:26:46.914Z,63.93
2024-04-18T09:27:46.912Z,59.75
2024-04-18T09:28:46.900Z,61.00
2024-04-18T09:29:46.877Z,63.24
2024-04-18T09:30:46.882Z,63.48
2024-04-18T09:31:46.895Z,65.86
2024-04-18T09:32:46.877Z,65.25
2024-04-18T09:33:47.019Z,65.28
2024-04-18T09:34:46.949Z,64.55
2024-04-18T09:35:46.814Z,65.63
2024-04-18T09:36:46.856Z,68.35
2024-04-18T09:37:53.159Z,70.67
2024-04-18T09:38:48.772Z,71.62
2024-04-18T09:39:46.826Z,72.07
2024-04-18T09:40:46.764Z,72.31
2024-04-18T09:41:46.745Z,73.44
2024-04-18T09:42:46.810Z,72.65
2024-04-18T09:43:46.744Z,73.47
2024-04-18T09:44:46.808Z,74.40
2024-04-18T09:45:46.733Z,73.16
2024-04-18T09:46:46.760Z,73.68
2024-04-18T09:47:47.555Z,73.27
2024-04-18T09:48:47.026Z,73.16
2024-04-18T09:49:46.686Z,74.60
2024-04-18T09:50:46.681Z,76.04
2024-04-18T09:51:46.725Z,74.91
2024-04-18T09:52:46.690Z,75.01
2024-04-18T09:53:46.658Z,74.40
2024-04-18T09:54:47.811Z,74.46
2024-04-18T09:55:46.669Z,74.84
2024-04-18T09:56:46.692Z,73.10
2024-04-18T09:57:46.601Z,74.22
2024-04-18T09:58:46.658Z,71.04
2024-04-18T09:59:46.582Z,70.87
2024-04-18T10:00:46.600Z,70.80
2024-04-18T10:01:46.625Z,72.24
2024-04-18T10:02:46.623Z,72.96
2024-04-18T10:03:46.665Z,72.78
2024-04-18T10:04:46.696Z,74.02
2024-04-18T10:05:46.571Z,74.53
2024-04-18T10:06:46.562Z,75.70
2024-04-18T10:07:46.555Z,75.59
2024-04-18T10:08:46.524Z,76.21
2024-04-18T10:09:46.531Z,76.82
2024-04-18T10:10:46.608Z,77.13
2024-04-18T10:11:46.505Z,76.42
2024-04-18T10:12:46.552Z,76.97
2024-04-18T10:13:46.457Z,77.17
2024-04-18T10:14:46.508Z,76.97
2024-04-18T10:15:46.451Z,76.65
2024-04-18T10:16:46.421Z,75.52
2024-04-18T10:17:46.493Z,75.87
2024-04-18T10:18:47.806Z,75.73
2024-04-18T10:19:46.421Z,75.83
2024-04-18T10:20:46.384Z,75.18
2024-04-18T10:22:48.301Z,73.88
2024-04-18T10:23:46.364Z,73.23
2024-04-18T10:24:46.367Z,72.78
2024-04-18T10:25:46.383Z,72.00
2024-04-18T10:26:46.379Z,70.91
2024-04-18T10:27:46.413Z,67.33
2024-04-18T10:28:46.351Z,67.40
2024-04-18T10:29:46.316Z,68.22
2024-04-18T10:30:46.327Z,67.37
2024-04-18T10:31:46.362Z,66.86
2024-04-18T10:32:46.409Z,66.21
2024-04-18T10:33:46.428Z,65.57
2024-04-18T10:34:46.274Z,65.30
2024-04-18T10:35:46.272Z,66.18
2024-04-18T10:36:46.357Z,63.93
2024-04-18T10:37:46.235Z,65.57
2024-04-18T10:38:46.275Z,64.24
2024-04-18T10:39:46.261Z,64.83
2024-04-18T10:40:46.282Z,64.45
2024-04-18T10:41:46.229Z,65.54
2024-04-18T10:42:46.293Z,65.84
2024-04-18T10:43:46.221Z,64.45
2024-04-18T10:44:46.178Z,64.27
2024-04-18T10:45:46.221Z,65.73
2024-04-18T10:46:46.124Z,65.73
2024-04-18T10:47:46.227Z,64.54
2024-04-18T10:48:46.297Z,65.05
2024-04-18T10:49:46.135Z,66.31
2024-04-18T10:50:46.199Z,68.25
2024-04-18T10:51:46.101Z,68.46
2024-04-18T10:52:46.099Z,68.18
2024-04-18T10:53:46.137Z,69.24
2024-04-18T10:54:46.155Z,70.77
2024-04-18T10:55:46.113Z,69.34
2024-04-18T10:56:46.091Z,70.36
2024-04-18T10:57:46.082Z,69.44
2024-04-18T10:58:46.046Z,69.20
2024-04-18T10:59:46.062Z,68.28
2024-04-18T11:00:46.114Z,69.79
2024-04-18T11:01:46.092Z,70.40
2024-04-18T11:02:46.106Z,69.14
2024-04-18T11:03:46.182Z,68.05
2024-04-18T11:04:46.114Z,69.34
2024-04-18T11:05:45.991Z,69.79
2024-04-18T11:06:46.030Z,65.50
2024-04-18T11:07:45.950Z,65.88
2024-04-18T11:08:45.956Z,66.63
2024-04-18T11:09:45.941Z,66.39
2024-04-18T11:10:45.926Z,63.75
2024-04-18T11:11:45.895Z,63.26
2024-04-18T11:12:45.888Z,64.05
2024-04-18T11:13:45.914Z,62.29
2024-04-18T11:14:46.007Z,64.20
2024-04-18T11:15:45.903Z,64.47
2024-04-18T11:16:45.879Z,59.61
2024-04-18T11:17:45.961Z,59.99
2024-04-18T11:18:46.007Z,58.67
2024-04-18T11:19:45.842Z,58.44
2024-04-18T11:20:45.834Z,58.51
2024-04-18T11:21:45.814Z,58.44
2024-04-18T11:22:48.075Z,58.46
2024-04-18T11:23:51.539Z,58.76
2024-04-18T11:24:46.879Z,59.28
2024-04-18T11:25:45.757Z,59.81
2024-04-18T11:26:45.739Z,59.66
2024-04-18T11:27:45.749Z,61.32
2024-04-18T11:28:45.732Z,61.35
2024-04-18T11:29:45.726Z,61.66
2024-04-18T11:30:45.756Z,61.90
2024-04-18T11:31:45.730Z,62.84
2024-04-18T11:32:45.794Z,63.59
2024-04-18T11:33:45.733Z,63.35
2024-04-18T11:34:47.153Z,63.96
2024-04-18T11:35:45.664Z,64.17
2024-04-18T11:36:45.714Z,62.40
2024-04-18T11:37:45.614Z,63.73
2024-04-18T11:38:45.616Z,61.90
2024-04-18T11:39:45.667Z,60.46
2024-04-18T11:40:45.624Z,59.03
2024-04-18T11:41:45.616Z,59.88
2024-04-18T11:42:45.690Z,59.75
2024-04-18T11:43:45.571Z,57.78
2024-04-18T11:44:45.570Z,56.76
2024-04-18T11:45:45.580Z,57.04
2024-04-18T11:46:45.569Z,54.69
2024-04-18T11:47:45.614Z,55.10
2024-04-18T11:48:45.610Z,57.09
2024-04-18T11:49:45.522Z,57.24
2024-04-18T11:50:45.489Z,56.81
2024-04-18T11:51:45.512Z,52.40
2024-04-18T11:52:45.470Z,54.72
2024-04-18T11:53:45.498Z,50.93
2024-04-18T11:54:45.475Z,50.57
2024-04-18T11:55:45.450Z,52.30
2024-04-18T11:56:45.465Z,53.50
2024-04-18T11:57:45.437Z,53.52
2024-04-18T11:58:45.446Z,54.11
2024-04-18T11:59:45.434Z,51.79
2024-04-18T12:00:45.506Z,52.50
2024-04-18T12:01:45.408Z,52.94
2024-04-18T12:02:45.385Z,53.42
2024-04-18T12:03:45.442Z,53.55
2024-04-18T12:04:45.387Z,53.72
2024-04-18T12:05:45.474Z,49.68
2024-04-18T12:06:45.442Z,50.62
2024-04-18T12:07:45.387Z,51.74
2024-04-18T12:08:46.312Z,52.17
2024-04-18T12:09:45.353Z,55.48
2024-04-18T12:10:45.322Z,55.89
2024-04-18T12:11:45.391Z,57.04
2024-04-18T12:12:45.318Z,57.04
2024-04-18T12:13:45.318Z,57.34
2024-04-18T12:14:45.291Z,57.98
2024-04-18T12:15:45.396Z,58.09
2024-04-18T12:16:45.300Z,57.98
2024-04-18T12:17:45.278Z,57.27
2024-04-18T12:18:45.324Z,56.35
2024-04-18T12:19:45.425Z,56.25
2024-04-18T12:20:45.250Z,58.50
2024-04-18T12:21:45.244Z,57.48
2024-04-18T12:22:45.201Z,57.14
2024-04-18T12:23:45.174Z,56.23
2024-04-18T12:24:45.225Z,57.65
2024-04-18T12:25:45.180Z,55.41
2024-04-18T12:26:45.168Z,55.71
2024-04-18T12:27:45.173Z,55.91
2024-04-18T12:28:45.142Z,55.30
2024-04-18T12:29:45.143Z,54.59
2024-04-18T12:30:45.279Z,54.39
2024-04-18T12:31:45.156Z,54.18
2024-04-18T12:32:45.184Z,53.57
2024-04-18T12:33:45.154Z,54.28
2024-04-18T12:34:45.073Z,53.98
2024-04-18T12:35:45.131Z,52.55
2024-04-18T12:36:45.131Z,52.45
2024-04-18T12:37:45.103Z,55.07
2024-04-18T12:38:45.066Z,53.03
2024-04-18T12:39:45.084Z,52.12
2024-04-18T12:40:45.298Z,52.12
2024-04-18T12:41:45.008Z,52.60
2024-04-18T12:42:45.058Z,53.72
2024-04-18T12:43:44.997Z,51.97
2024-04-18T12:44:45.015Z,53.80
2024-04-18T12:45:45.031Z,52.27
2024-04-18T12:46:45.075Z,51.84
2024-04-18T12:47:45.138Z,51.86
2024-04-18T12:48:45.110Z,52.81
2024-04-18T12:49:45.126Z,53.70
2024-04-18T12:50:45.053Z,51.66
2024-04-18T12:51:45.094Z,52.15
2024-04-18T12:52:44.964Z,52.63
2024-04-18T12:53:44.947Z,52.43
2024-04-18T12:54:44.953Z,52.30
2024-04-18T12:55:45.081Z,53.22